sensor_id;sensor_type;location;lat;lon;timestamp;P1;durP1;ratioP1;P2;durP2;ratioP2
41446;SDS011;27185;52.040;4.490;2022-09-24T00:01:22;19.48;;;14.68;;
41446;SDS011;27185;52.040;4.490;2022-09-24T00:04:10;18.08;;;15.05;;
41446;SDS011;27185;52.040;4.490;2022-09-24T00:06:58;21.75;;;16.25;;
41446;SDS011;27185;52.040;4.490;2022-09-24T00:09:43;20.30;;;15.88;;
41446;SDS011;27185;52.040;4.490;2022-09-24T00:12:29;18.50;;;14.38;;
41446;SDS011;27185;52.040;4.490;2022-09-24T00:15:14;18.52;;;15.50;;
41446;SDS011;27185;52.040;4.490;2022-09-24T00:18:00;17.80;;;14.93;;
41446;SDS011;27185;52.040;4.490;2022-09-24T00:20:46;18.85;;;15.65;;
41446;SDS011;27185;52.040;4.490;2022-09-24T00:23:32;16.45;;;13.43;;
41446;SDS011;27185;52.040;4.490;2022-09-24T00:26:17;19.13;;;16.20;;
41446;SDS011;27185;52.040;4.490;2022-09-24T00:29:23;17.00;;;13.95;;
41446;SDS011;27185;52.040;4.490;2022-09-24T00:32:09;17.40;;;14.88;;
41446;SDS011;27185;52.040;4.490;2022-09-24T00:34:56;16.38;;;13.27;;
41446;SDS011;27185;52.040;4.490;2022-09-24T00:37:42;18.83;;;15.68;;
41446;SDS011;27185;52.040;4.490;2022-09-24T00:40:29;18.55;;;15.15;;
41446;SDS011;27185;52.040;4.490;2022-09-24T00:43:20;17.63;;;14.48;;
41446;SDS011;27185;52.040;4.490;2022-09-24T00:46:41;19.23;;;15.55;;
41446;SDS011;27185;52.040;4.490;2022-09-24T00:49:26;18.77;;;14.53;;
41446;SDS011;27185;52.040;4.490;2022-09-24T00:52:13;16.23;;;13.77;;
41446;SDS011;27185;52.040;4.490;2022-09-24T00:54:59;19.02;;;16.40;;
41446;SDS011;27185;52.040;4.490;2022-09-24T00:57:45;15.80;;;13.65;;
41446;SDS011;27185;52.040;4.490;2022-09-24T01:00:36;17.42;;;12.98;;
41446;SDS011;27185;52.040;4.490;2022-09-24T01:03:23;16.50;;;13.15;;
41446;SDS011;27185;52.040;4.490;2022-09-24T01:06:10;17.38;;;14.70;;
41446;SDS011;27185;52.040;4.490;2022-09-24T01:08:57;17.67;;;13.43;;
41446;SDS011;27185;52.040;4.490;2022-09-24T01:11:53;13.98;;;12.52;;
41446;SDS011;27185;52.040;4.490;2022-09-24T01:15:21;13.20;;;11.80;;
41446;SDS011;27185;52.040;4.490;2022-09-24T01:18:17;15.15;;;13.38;;
41446;SDS011;27185;52.040;4.490;2022-09-24T01:24:23;13.98;;;11.75;;
41446;SDS011;27185;52.040;4.490;2022-09-24T01:30:40;15.98;;;13.75;;
41446;SDS011;27185;52.040;4.490;2022-09-24T01:33:26;18.67;;;15.60;;
41446;SDS011;27185;52.040;4.490;2022-09-24T01:36:14;14.73;;;13.02;;
41446;SDS011;27185;52.040;4.490;2022-09-24T01:39:01;16.17;;;13.25;;
41446;SDS011;27185;52.040;4.490;2022-09-24T01:41:50;18.20;;;13.20;;
41446;SDS011;27185;52.040;4.490;2022-09-24T01:44:37;15.80;;;13.20;;
41446;SDS011;27185;52.040;4.490;2022-09-24T01:47:33;18.98;;;16.02;;
41446;SDS011;27185;52.040;4.490;2022-09-24T01:50:23;18.17;;;15.77;;
41446;SDS011;27185;52.040;4.490;2022-09-24T01:53:18;18.02;;;14.77;;
41446;SDS011;27185;52.040;4.490;2022-09-24T01:56:12;18.33;;;15.25;;
41446;SDS011;27185;52.040;4.490;2022-09-24T01:59:08;20.70;;;16.80;;
41446;SDS011;27185;52.040;4.490;2022-09-24T02:05:02;18.85;;;15.63;;
41446;SDS011;27185;52.040;4.490;2022-09-24T02:11:01;19.30;;;15.23;;
41446;SDS011;27185;52.040;4.490;2022-09-24T02:13:59;20.60;;;17.20;;
41446;SDS011;27185;52.040;4.490;2022-09-24T02:16:58;20.48;;;16.15;;
41446;SDS011;27185;52.040;4.490;2022-09-24T02:19:46;20.92;;;16.02;;
41446;SDS011;27185;52.040;4.490;2022-09-24T02:22:33;17.87;;;14.53;;
41446;SDS011;27185;52.040;4.490;2022-09-24T02:25:23;16.83;;;14.43;;
41446;SDS011;27185;52.040;4.490;2022-09-24T02:28:14;20.45;;;15.32;;
41446;SDS011;27185;52.040;4.490;2022-09-24T02:31:02;18.23;;;13.82;;
41446;SDS011;27185;52.040;4.490;2022-09-24T02:33:52;17.73;;;14.27;;
41446;SDS011;27185;52.040;4.490;2022-09-24T02:36:58;19.58;;;15.00;;
41446;SDS011;27185;52.040;4.490;2022-09-24T02:39:47;17.50;;;14.20;;
41446;SDS011;27185;52.040;4.490;2022-09-24T02:42:34;21.63;;;15.55;;
41446;SDS011;27185;52.040;4.490;2022-09-24T02:45:21;19.38;;;14.70;;
41446;SDS011;27185;52.040;4.490;2022-09-24T02:48:06;20.85;;;16.13;;
41446;SDS011;27185;52.040;4.490;2022-09-24T02:50:52;22.92;;;18.80;;
41446;SDS011;27185;52.040;4.490;2022-09-24T02:53:38;26.80;;;18.05;;
41446;SDS011;27185;52.040;4.490;2022-09-24T02:56:23;20.65;;;16.70;;
41446;SDS011;27185;52.040;4.490;2022-09-24T02:59:09;20.17;;;16.05;;
41446;SDS011;27185;52.040;4.490;2022-09-24T03:01:56;23.73;;;18.35;;
41446;SDS011;27185;52.040;4.490;2022-09-24T03:04:41;22.55;;;17.70;;
41446;SDS011;27185;52.040;4.490;2022-09-24T03:07:27;25.98;;;18.52;;
41446;SDS011;27185;52.040;4.490;2022-09-24T03:10:12;24.15;;;18.13;;
41446;SDS011;27185;52.040;4.490;2022-09-24T03:12:58;23.50;;;17.95;;
41446;SDS011;27185;52.040;4.490;2022-09-24T03:15:44;19.58;;;15.73;;
41446;SDS011;27185;52.040;4.490;2022-09-24T03:18:30;19.25;;;15.70;;
41446;SDS011;27185;52.040;4.490;2022-09-24T03:21:17;20.42;;;15.90;;
41446;SDS011;27185;52.040;4.490;2022-09-24T03:26:49;19.95;;;14.57;;
41446;SDS011;27185;52.040;4.490;2022-09-24T03:29:35;22.60;;;17.42;;
41446;SDS011;27185;52.040;4.490;2022-09-24T03:32:59;22.13;;;16.55;;
41446;SDS011;27185;52.040;4.490;2022-09-24T03:35:44;23.67;;;17.77;;
41446;SDS011;27185;52.040;4.490;2022-09-24T03:38:30;24.17;;;18.10;;
41446;SDS011;27185;52.040;4.490;2022-09-24T03:41:16;23.08;;;17.98;;
41446;SDS011;27185;52.040;4.490;2022-09-24T03:44:02;22.95;;;18.20;;
41446;SDS011;27185;52.040;4.490;2022-09-24T03:46:48;24.27;;;17.92;;
41446;SDS011;27185;52.040;4.490;2022-09-24T03:49:34;26.85;;;20.35;;
41446;SDS011;27185;52.040;4.490;2022-09-24T03:52:19;25.63;;;19.00;;
41446;SDS011;27185;52.040;4.490;2022-09-24T03:55:05;24.40;;;18.98;;
41446;SDS011;27185;52.040;4.490;2022-09-24T03:57:51;23.88;;;18.98;;
41446;SDS011;27185;52.040;4.490;2022-09-24T04:00:37;24.52;;;18.58;;
41446;SDS011;27185;52.040;4.490;2022-09-24T04:03:23;26.95;;;19.25;;
41446;SDS011;27185;52.040;4.490;2022-09-24T04:06:09;26.85;;;18.77;;
41446;SDS011;27185;52.040;4.490;2022-09-24T04:08:55;29.17;;;19.92;;
41446;SDS011;27185;52.040;4.490;2022-09-24T04:11:40;26.77;;;20.17;;
41446;SDS011;27185;52.040;4.490;2022-09-24T04:14:26;26.75;;;19.90;;
41446;SDS011;27185;52.040;4.490;2022-09-24T04:17:12;26.50;;;18.40;;
41446;SDS011;27185;52.040;4.490;2022-09-24T04:19:59;26.83;;;19.17;;
41446;SDS011;27185;52.040;4.490;2022-09-24T04:22:45;26.25;;;19.48;;
41446;SDS011;27185;52.040;4.490;2022-09-24T04:25:31;33.60;;;20.05;;
41446;SDS011;27185;52.040;4.490;2022-09-24T04:28:17;25.02;;;18.95;;
41446;SDS011;27185;52.040;4.490;2022-09-24T04:31:03;28.40;;;20.67;;
41446;SDS011;27185;52.040;4.490;2022-09-24T04:33:49;29.60;;;21.00;;
41446;SDS011;27185;52.040;4.490;2022-09-24T04:36:35;27.52;;;20.55;;
41446;SDS011;27185;52.040;4.490;2022-09-24T04:39:21;27.40;;;20.40;;
41446;SDS011;27185;52.040;4.490;2022-09-24T04:42:14;27.15;;;20.70;;
41446;SDS011;27185;52.040;4.490;2022-09-24T04:45:03;27.38;;;19.98;;
41446;SDS011;27185;52.040;4.490;2022-09-24T04:47:50;19.35;;;14.77;;
41446;SDS011;27185;52.040;4.490;2022-09-24T04:50:40;20.67;;;15.27;;
41446;SDS011;27185;52.040;4.490;2022-09-24T04:53:25;21.52;;;15.02;;
41446;SDS011;27185;52.040;4.490;2022-09-24T04:56:11;18.90;;;14.85;;
41446;SDS011;27185;52.040;4.490;2022-09-24T04:58:57;17.13;;;12.90;;
41446;SDS011;27185;52.040;4.490;2022-09-24T05:01:43;16.35;;;12.35;;
41446;SDS011;27185;52.040;4.490;2022-09-24T05:04:28;17.88;;;11.85;;
41446;SDS011;27185;52.040;4.490;2022-09-24T05:07:15;16.58;;;12.50;;
41446;SDS011;27185;52.040;4.490;2022-09-24T05:10:00;16.17;;;11.65;;
41446;SDS011;27185;52.040;4.490;2022-09-24T05:12:46;16.50;;;12.48;;
41446;SDS011;27185;52.040;4.490;2022-09-24T05:15:31;14.13;;;11.55;;
41446;SDS011;27185;52.040;4.490;2022-09-24T05:18:17;15.50;;;12.38;;
41446;SDS011;27185;52.040;4.490;2022-09-24T05:21:02;14.60;;;11.90;;
41446;SDS011;27185;52.040;4.490;2022-09-24T05:23:48;14.95;;;10.68;;
41446;SDS011;27185;52.040;4.490;2022-09-24T05:26:33;13.27;;;10.27;;
41446;SDS011;27185;52.040;4.490;2022-09-24T05:29:38;14.05;;;10.57;;
41446;SDS011;27185;52.040;4.490;2022-09-24T05:32:24;14.18;;;10.18;;
41446;SDS011;27185;52.040;4.490;2022-09-24T05:35:10;11.38;;;8.55;;
41446;SDS011;27185;52.040;4.490;2022-09-24T05:37:57;12.75;;;8.82;;
41446;SDS011;27185;52.040;4.490;2022-09-24T05:40:43;12.55;;;8.65;;
41446;SDS011;27185;52.040;4.490;2022-09-24T05:43:34;11.23;;;7.00;;
41446;SDS011;27185;52.040;4.490;2022-09-24T05:46:20;10.23;;;7.47;;
41446;SDS011;27185;52.040;4.490;2022-09-24T05:49:05;11.32;;;6.75;;
41446;SDS011;27185;52.040;4.490;2022-09-24T05:51:51;12.90;;;5.43;;
41446;SDS011;27185;52.040;4.490;2022-09-24T05:54:36;6.63;;;4.45;;
41446;SDS011;27185;52.040;4.490;2022-09-24T05:57:22;7.55;;;3.00;;
41446;SDS011;27185;52.040;4.490;2022-09-24T06:00:08;6.20;;;2.85;;
41446;SDS011;27185;52.040;4.490;2022-09-24T06:02:53;4.72;;;1.88;;
41446;SDS011;27185;52.040;4.490;2022-09-24T06:05:46;5.03;;;1.50;;
41446;SDS011;27185;52.040;4.490;2022-09-24T06:08:33;5.22;;;1.52;;
41446;SDS011;27185;52.040;4.490;2022-09-24T06:11:19;6.38;;;1.55;;
41446;SDS011;27185;52.040;4.490;2022-09-24T06:14:06;6.47;;;1.95;;
41446;SDS011;27185;52.040;4.490;2022-09-24T06:16:52;4.75;;;1.75;;
41446;SDS011;27185;52.040;4.490;2022-09-24T06:19:38;7.25;;;2.75;;
41446;SDS011;27185;52.040;4.490;2022-09-24T06:22:24;8.23;;;2.08;;
41446;SDS011;27185;52.040;4.490;2022-09-24T06:25:11;7.15;;;2.03;;
41446;SDS011;27185;52.040;4.490;2022-09-24T06:27:57;8.00;;;2.47;;
41446;SDS011;27185;52.040;4.490;2022-09-24T06:30:45;7.78;;;2.28;;
41446;SDS011;27185;52.040;4.490;2022-09-24T06:33:30;6.53;;;2.30;;
41446;SDS011;27185;52.040;4.490;2022-09-24T06:36:16;3.78;;;1.55;;
41446;SDS011;27185;52.040;4.490;2022-09-24T06:39:02;9.13;;;1.92;;
41446;SDS011;27185;52.040;4.490;2022-09-24T06:41:47;4.65;;;1.10;;
41446;SDS011;27185;52.040;4.490;2022-09-24T06:44:35;6.20;;;1.42;;
41446;SDS011;27185;52.040;4.490;2022-09-24T06:47:20;5.47;;;1.45;;
41446;SDS011;27185;52.040;4.490;2022-09-24T06:50:08;5.15;;;1.13;;
41446;SDS011;27185;52.040;4.490;2022-09-24T06:52:56;8.07;;;1.50;;
41446;SDS011;27185;52.040;4.490;2022-09-24T06:55:42;5.50;;;1.40;;
41446;SDS011;27185;52.040;4.490;2022-09-24T06:58:28;6.50;;;1.20;;
41446;SDS011;27185;52.040;4.490;2022-09-24T07:01:14;8.38;;;1.38;;
41446;SDS011;27185;52.040;4.490;2022-09-24T07:03:59;11.30;;;1.70;;
41446;SDS011;27185;52.040;4.490;2022-09-24T07:06:45;10.23;;;1.70;;
41446;SDS011;27185;52.040;4.490;2022-09-24T07:09:49;10.90;;;1.95;;
41446;SDS011;27185;52.040;4.490;2022-09-24T07:12:35;6.68;;;1.35;;
41446;SDS011;27185;52.040;4.490;2022-09-24T07:15:21;9.23;;;1.30;;
41446;SDS011;27185;52.040;4.490;2022-09-24T07:18:06;12.77;;;1.77;;
41446;SDS011;27185;52.040;4.490;2022-09-24T07:20:53;13.10;;;1.80;;
41446;SDS011;27185;52.040;4.490;2022-09-24T07:23:39;6.75;;;1.10;;
41446;SDS011;27185;52.040;4.490;2022-09-24T07:26:27;6.68;;;1.05;;
41446;SDS011;27185;52.040;4.490;2022-09-24T07:31:58;6.68;;;1.10;;
41446;SDS011;27185;52.040;4.490;2022-09-24T07:34:44;7.63;;;0.90;;
41446;SDS011;27185;52.040;4.490;2022-09-24T07:37:29;13.02;;;1.80;;
41446;SDS011;27185;52.040;4.490;2022-09-24T07:40:18;10.20;;;1.52;;
41446;SDS011;27185;52.040;4.490;2022-09-24T07:43:04;9.30;;;1.10;;
41446;SDS011;27185;52.040;4.490;2022-09-24T07:45:51;5.63;;;1.08;;
41446;SDS011;27185;52.040;4.490;2022-09-24T07:48:37;6.68;;;1.25;;
41446;SDS011;27185;52.040;4.490;2022-09-24T07:51:23;6.20;;;0.95;;
41446;SDS011;27185;52.040;4.490;2022-09-24T07:54:12;6.43;;;1.13;;
41446;SDS011;27185;52.040;4.490;2022-09-24T07:56:57;7.32;;;1.30;;
41446;SDS011;27185;52.040;4.490;2022-09-24T07:59:44;8.15;;;1.23;;
41446;SDS011;27185;52.040;4.490;2022-09-24T08:02:30;9.50;;;1.58;;
41446;SDS011;27185;52.040;4.490;2022-09-24T08:05:15;6.05;;;0.90;;
41446;SDS011;27185;52.040;4.490;2022-09-24T08:08:02;4.43;;;0.90;;
41446;SDS011;27185;52.040;4.490;2022-09-24T08:10:47;7.00;;;1.33;;
41446;SDS011;27185;52.040;4.490;2022-09-24T08:13:35;7.25;;;1.38;;
41446;SDS011;27185;52.040;4.490;2022-09-24T08:16:21;7.80;;;1.10;;
41446;SDS011;27185;52.040;4.490;2022-09-24T08:19:08;7.07;;;1.15;;
41446;SDS011;27185;52.040;4.490;2022-09-24T08:21:57;6.60;;;1.48;;
41446;SDS011;27185;52.040;4.490;2022-09-24T08:24:43;8.95;;;1.00;;
41446;SDS011;27185;52.040;4.490;2022-09-24T08:27:29;8.90;;;1.00;;
41446;SDS011;27185;52.040;4.490;2022-09-24T08:30:16;7.85;;;1.00;;
41446;SDS011;27185;52.040;4.490;2022-09-24T08:33:02;6.97;;;1.00;;
41446;SDS011;27185;52.040;4.490;2022-09-24T08:35:51;11.80;;;1.42;;
41446;SDS011;27185;52.040;4.490;2022-09-24T08:38:36;7.82;;;1.02;;
41446;SDS011;27185;52.040;4.490;2022-09-24T08:41:26;9.85;;;1.23;;
41446;SDS011;27185;52.040;4.490;2022-09-24T08:44:29;8.32;;;1.27;;
41446;SDS011;27185;52.040;4.490;2022-09-24T08:47:42;9.15;;;1.25;;
41446;SDS011;27185;52.040;4.490;2022-09-24T08:50:32;9.40;;;1.60;;
41446;SDS011;27185;52.040;4.490;2022-09-24T08:53:24;5.07;;;0.82;;
41446;SDS011;27185;52.040;4.490;2022-09-24T08:56:17;10.68;;;1.98;;
41446;SDS011;27185;52.040;4.490;2022-09-24T09:02:29;11.37;;;1.00;;
41446;SDS011;27185;52.040;4.490;2022-09-24T09:08:29;8.30;;;0.93;;
41446;SDS011;27185;52.040;4.490;2022-09-24T09:11:35;15.60;;;1.75;;
41446;SDS011;27185;52.040;4.490;2022-09-24T09:20:37;8.32;;;1.30;;
41446;SDS011;27185;52.040;4.490;2022-09-24T09:23:33;10.30;;;1.85;;
41446;SDS011;27185;52.040;4.490;2022-09-24T09:26:25;6.63;;;0.90;;
41446;SDS011;27185;52.040;4.490;2022-09-24T09:29:11;7.60;;;1.00;;
41446;SDS011;27185;52.040;4.490;2022-09-24T09:32:03;8.35;;;0.98;;
41446;SDS011;27185;52.040;4.490;2022-09-24T09:35:13;4.60;;;0.70;;
41446;SDS011;27185;52.040;4.490;2022-09-24T09:44:18;4.47;;;0.60;;
41446;SDS011;27185;52.040;4.490;2022-09-24T09:53:19;4.90;;;0.70;;
41446;SDS011;27185;52.040;4.490;2022-09-24T09:56:07;7.70;;;1.10;;
41446;SDS011;27185;52.040;4.490;2022-09-24T09:59:00;5.93;;;0.60;;
41446;SDS011;27185;52.040;4.490;2022-09-24T10:04:40;7.85;;;1.27;;
41446;SDS011;27185;52.040;4.490;2022-09-24T10:07:27;7.53;;;1.38;;
41446;SDS011;27185;52.040;4.490;2022-09-24T10:10:17;6.65;;;1.05;;
41446;SDS011;27185;52.040;4.490;2022-09-24T10:13:11;5.90;;;1.35;;
41446;SDS011;27185;52.040;4.490;2022-09-24T10:15:57;4.70;;;0.70;;
41446;SDS011;27185;52.040;4.490;2022-09-24T10:18:52;4.28;;;0.70;;
41446;SDS011;27185;52.040;4.490;2022-09-24T10:21:38;5.55;;;1.00;;
41446;SDS011;27185;52.040;4.490;2022-09-24T10:24:24;8.05;;;1.13;;
41446;SDS011;27185;52.040;4.490;2022-09-24T10:27:12;7.07;;;0.70;;
41446;SDS011;27185;52.040;4.490;2022-09-24T10:30:11;6.55;;;1.20;;
41446;SDS011;27185;52.040;4.490;2022-09-24T10:33:17;3.60;;;0.52;;
41446;SDS011;27185;52.040;4.490;2022-09-24T10:36:04;5.35;;;0.77;;
41446;SDS011;27185;52.040;4.490;2022-09-24T10:41:53;3.97;;;0.70;;
41446;SDS011;27185;52.040;4.490;2022-09-24T10:44:43;5.60;;;0.70;;
41446;SDS011;27185;52.040;4.490;2022-09-24T10:47:38;9.20;;;0.77;;
41446;SDS011;27185;52.040;4.490;2022-09-24T10:50:36;4.28;;;0.60;;
41446;SDS011;27185;52.040;4.490;2022-09-24T10:53:34;2.20;;;0.50;;
41446;SDS011;27185;52.040;4.490;2022-09-24T10:56:40;2.45;;;0.40;;
41446;SDS011;27185;52.040;4.490;2022-09-24T10:59:40;3.97;;;0.73;;
41446;SDS011;27185;52.040;4.490;2022-09-24T11:05:59;3.28;;;0.70;;
41446;SDS011;27185;52.040;4.490;2022-09-24T11:08:50;7.03;;;0.68;;
41446;SDS011;27185;52.040;4.490;2022-09-24T11:12:12;3.60;;;0.50;;
41446;SDS011;27185;52.040;4.490;2022-09-24T11:18:34;4.50;;;0.70;;
41446;SDS011;27185;52.040;4.490;2022-09-24T11:28:31;4.10;;;0.40;;
41446;SDS011;27185;52.040;4.490;2022-09-24T11:37:59;5.35;;;0.50;;
41446;SDS011;27185;52.040;4.490;2022-09-24T11:41:07;2.65;;;0.32;;
41446;SDS011;27185;52.040;4.490;2022-09-24T11:44:18;5.78;;;0.47;;
41446;SDS011;27185;52.040;4.490;2022-09-24T11:53:50;3.55;;;0.68;;
41446;SDS011;27185;52.040;4.490;2022-09-24T12:02:54;5.05;;;0.85;;
41446;SDS011;27185;52.040;4.490;2022-09-24T12:05:56;4.40;;;0.70;;
41446;SDS011;27185;52.040;4.490;2022-09-24T12:11:39;6.03;;;0.63;;
41446;SDS011;27185;52.040;4.490;2022-09-24T12:14:34;4.75;;;0.60;;
41446;SDS011;27185;52.040;4.490;2022-09-24T12:17:40;8.35;;;0.70;;
41446;SDS011;27185;52.040;4.490;2022-09-24T12:21:09;5.95;;;0.60;;
41446;SDS011;27185;52.040;4.490;2022-09-24T12:24:00;6.03;;;0.63;;
41446;SDS011;27185;52.040;4.490;2022-09-24T12:26:48;8.93;;;1.13;;
41446;SDS011;27185;52.040;4.490;2022-09-24T12:39:06;4.80;;;0.95;;
41446;SDS011;27185;52.040;4.490;2022-09-24T12:42:01;5.57;;;0.55;;
41446;SDS011;27185;52.040;4.490;2022-09-24T12:44:52;7.47;;;0.90;;
41446;SDS011;27185;52.040;4.490;2022-09-24T12:47:46;7.78;;;0.80;;
41446;SDS011;27185;52.040;4.490;2022-09-24T12:50:38;4.35;;;0.82;;
41446;SDS011;27185;52.040;4.490;2022-09-24T12:53:24;4.43;;;0.50;;
41446;SDS011;27185;52.040;4.490;2022-09-24T12:56:21;4.13;;;0.80;;
41446;SDS011;27185;52.040;4.490;2022-09-24T12:59:26;5.60;;;0.90;;
41446;SDS011;27185;52.040;4.490;2022-09-24T13:02:14;5.68;;;0.80;;
41446;SDS011;27185;52.040;4.490;2022-09-24T13:07:57;8.60;;;0.77;;
41446;SDS011;27185;52.040;4.490;2022-09-24T13:13:44;4.15;;;0.57;;
41446;SDS011;27185;52.040;4.490;2022-09-24T13:16:30;4.35;;;0.60;;
41446;SDS011;27185;52.040;4.490;2022-09-24T13:27:58;4.28;;;0.50;;
41446;SDS011;27185;52.040;4.490;2022-09-24T13:30:47;3.65;;;0.40;;
41446;SDS011;27185;52.040;4.490;2022-09-24T13:33:44;5.68;;;0.95;;
41446;SDS011;27185;52.040;4.490;2022-09-24T13:36:36;4.93;;;0.80;;
41446;SDS011;27185;52.040;4.490;2022-09-24T13:42:42;4.47;;;0.50;;
41446;SDS011;27185;52.040;4.490;2022-09-24T13:45:30;3.80;;;0.40;;
41446;SDS011;27185;52.040;4.490;2022-09-24T13:51:15;3.88;;;0.60;;
41446;SDS011;27185;52.040;4.490;2022-09-24T13:54:52;4.03;;;0.40;;
41446;SDS011;27185;52.040;4.490;2022-09-24T13:57:22;5.45;;;0.50;;
41446;SDS011;27185;52.040;4.490;2022-09-24T14:06:14;5.55;;;0.60;;
41446;SDS011;27185;52.040;4.490;2022-09-24T14:12:14;4.18;;;0.57;;
41446;SDS011;27185;52.040;4.490;2022-09-24T14:15:11;2.75;;;0.40;;
41446;SDS011;27185;52.040;4.490;2022-09-24T14:18:00;5.55;;;0.52;;
41446;SDS011;27185;52.040;4.490;2022-09-24T14:20:51;3.65;;;0.43;;
41446;SDS011;27185;52.040;4.490;2022-09-24T14:24:03;4.53;;;0.50;;
41446;SDS011;27185;52.040;4.490;2022-09-24T14:26:53;5.72;;;0.68;;
41446;SDS011;27185;52.040;4.490;2022-09-24T14:29:43;6.07;;;0.70;;
41446;SDS011;27185;52.040;4.490;2022-09-24T14:32:34;2.10;;;0.40;;
41446;SDS011;27185;52.040;4.490;2022-09-24T14:35:27;2.40;;;0.32;;
41446;SDS011;27185;52.040;4.490;2022-09-24T14:38:24;2.58;;;0.38;;
41446;SDS011;27185;52.040;4.490;2022-09-24T14:41:29;4.10;;;0.40;;
41446;SDS011;27185;52.040;4.490;2022-09-24T14:44:22;2.53;;;0.40;;
41446;SDS011;27185;52.040;4.490;2022-09-24T14:47:30;0.88;;;0.20;;
41446;SDS011;27185;52.040;4.490;2022-09-24T14:50:23;1.95;;;0.28;;
41446;SDS011;27185;52.040;4.490;2022-09-24T14:53:12;2.67;;;0.35;;
41446;SDS011;27185;52.040;4.490;2022-09-24T14:56:18;3.30;;;0.38;;
41446;SDS011;27185;52.040;4.490;2022-09-24T14:59:12;3.63;;;0.40;;
41446;SDS011;27185;52.040;4.490;2022-09-24T15:02:03;1.50;;;0.30;;
41446;SDS011;27185;52.040;4.490;2022-09-24T15:04:49;3.78;;;0.60;;
41446;SDS011;27185;52.040;4.490;2022-09-24T15:07:37;3.65;;;0.40;;
41446;SDS011;27185;52.040;4.490;2022-09-24T15:10:23;2.92;;;0.40;;
41446;SDS011;27185;52.040;4.490;2022-09-24T15:13:12;2.92;;;0.45;;
41446;SDS011;27185;52.040;4.490;2022-09-24T15:16:03;5.40;;;0.50;;
41446;SDS011;27185;52.040;4.490;2022-09-24T15:18:57;2.28;;;0.40;;
41446;SDS011;27185;52.040;4.490;2022-09-24T15:21:53;4.10;;;0.68;;
41446;SDS011;27185;52.040;4.490;2022-09-24T15:24:40;3.67;;;0.77;;
41446;SDS011;27185;52.040;4.490;2022-09-24T15:27:27;3.15;;;0.50;;
41446;SDS011;27185;52.040;4.490;2022-09-24T15:30:17;3.35;;;0.50;;
41446;SDS011;27185;52.040;4.490;2022-09-24T15:33:09;4.55;;;0.80;;
41446;SDS011;27185;52.040;4.490;2022-09-24T15:35:58;5.28;;;0.80;;
41446;SDS011;27185;52.040;4.490;2022-09-24T15:38:44;2.53;;;0.47;;
41446;SDS011;27185;52.040;4.490;2022-09-24T15:41:29;3.75;;;0.60;;
41446;SDS011;27185;52.040;4.490;2022-09-24T15:44:23;3.03;;;0.50;;
41446;SDS011;27185;52.040;4.490;2022-09-24T15:47:09;4.38;;;0.43;;
41446;SDS011;27185;52.040;4.490;2022-09-24T15:49:55;3.13;;;0.40;;
41446;SDS011;27185;52.040;4.490;2022-09-24T15:52:47;2.50;;;0.45;;
41446;SDS011;27185;52.040;4.490;2022-09-24T15:55:39;5.72;;;0.50;;
41446;SDS011;27185;52.040;4.490;2022-09-24T15:58:24;5.30;;;0.50;;
41446;SDS011;27185;52.040;4.490;2022-09-24T16:01:15;5.13;;;0.40;;
41446;SDS011;27185;52.040;4.490;2022-09-24T16:04:04;3.78;;;0.60;;
41446;SDS011;27185;52.040;4.490;2022-09-24T16:06:49;4.97;;;0.40;;
41446;SDS011;27185;52.040;4.490;2022-09-24T16:09:35;4.43;;;0.70;;
41446;SDS011;27185;52.040;4.490;2022-09-24T16:12:20;5.15;;;0.60;;
41446;SDS011;27185;52.040;4.490;2022-09-24T16:15:12;4.10;;;0.75;;
41446;SDS011;27185;52.040;4.490;2022-09-24T16:17:59;4.75;;;0.80;;
41446;SDS011;27185;52.040;4.490;2022-09-24T16:20:45;3.03;;;0.32;;
41446;SDS011;27185;52.040;4.490;2022-09-24T16:23:31;3.13;;;0.60;;
41446;SDS011;27185;52.040;4.490;2022-09-24T16:26:17;2.78;;;0.30;;
41446;SDS011;27185;52.040;4.490;2022-09-24T16:29:03;3.08;;;0.75;;
41446;SDS011;27185;52.040;4.490;2022-09-24T16:31:49;3.55;;;0.57;;
41446;SDS011;27185;52.040;4.490;2022-09-24T16:34:35;1.83;;;0.30;;
41446;SDS011;27185;52.040;4.490;2022-09-24T16:37:21;2.72;;;0.40;;
41446;SDS011;27185;52.040;4.490;2022-09-24T16:40:07;3.30;;;0.40;;
41446;SDS011;27185;52.040;4.490;2022-09-24T16:42:53;2.03;;;0.40;;
41446;SDS011;27185;52.040;4.490;2022-09-24T16:45:39;1.77;;;0.30;;
41446;SDS011;27185;52.040;4.490;2022-09-24T16:48:24;3.83;;;0.80;;
41446;SDS011;27185;52.040;4.490;2022-09-24T16:51:10;4.20;;;0.82;;
41446;SDS011;27185;52.040;4.490;2022-09-24T16:53:56;5.13;;;1.20;;
41446;SDS011;27185;52.040;4.490;2022-09-24T16:56:41;4.63;;;1.58;;
41446;SDS011;27185;52.040;4.490;2022-09-24T16:59:27;3.55;;;0.80;;
41446;SDS011;27185;52.040;4.490;2022-09-24T17:02:12;2.70;;;0.80;;
41446;SDS011;27185;52.040;4.490;2022-09-24T17:04:58;3.25;;;0.68;;
41446;SDS011;27185;52.040;4.490;2022-09-24T17:07:44;2.65;;;0.70;;
41446;SDS011;27185;52.040;4.490;2022-09-24T17:10:29;5.75;;;1.17;;
41446;SDS011;27185;52.040;4.490;2022-09-24T17:13:15;4.93;;;0.73;;
41446;SDS011;27185;52.040;4.490;2022-09-24T17:16:01;4.30;;;0.70;;
41446;SDS011;27185;52.040;4.490;2022-09-24T17:18:47;2.60;;;0.60;;
41446;SDS011;27185;52.040;4.490;2022-09-24T17:21:33;2.90;;;0.70;;
41446;SDS011;27185;52.040;4.490;2022-09-24T17:24:20;4.15;;;0.90;;
41446;SDS011;27185;52.040;4.490;2022-09-24T17:27:06;4.22;;;1.10;;
41446;SDS011;27185;52.040;4.490;2022-09-24T17:29:52;4.75;;;1.10;;
41446;SDS011;27185;52.040;4.490;2022-09-24T17:32:37;5.85;;;1.05;;
41446;SDS011;27185;52.040;4.490;2022-09-24T17:35:23;6.18;;;0.90;;
41446;SDS011;27185;52.040;4.490;2022-09-24T17:38:08;9.82;;;1.20;;
41446;SDS011;27185;52.040;4.490;2022-09-24T17:41:01;5.93;;;1.38;;
41446;SDS011;27185;52.040;4.490;2022-09-24T17:43:49;6.32;;;0.98;;
41446;SDS011;27185;52.040;4.490;2022-09-24T17:46:35;4.75;;;0.70;;
41446;SDS011;27185;52.040;4.490;2022-09-24T17:49:21;3.63;;;0.80;;
41446;SDS011;27185;52.040;4.490;2022-09-24T17:52:07;11.18;;;3.03;;
41446;SDS011;27185;52.040;4.490;2022-09-24T17:54:53;6.25;;;1.65;;
41446;SDS011;27185;52.040;4.490;2022-09-24T17:57:38;3.60;;;1.30;;
41446;SDS011;27185;52.040;4.490;2022-09-24T18:00:24;5.55;;;1.05;;
41446;SDS011;27185;52.040;4.490;2022-09-24T18:03:09;10.75;;;3.45;;
41446;SDS011;27185;52.040;4.490;2022-09-24T18:05:59;4.78;;;1.92;;
41446;SDS011;27185;52.040;4.490;2022-09-24T18:08:45;7.53;;;1.88;;
41446;SDS011;27185;52.040;4.490;2022-09-24T18:11:32;4.20;;;0.80;;
41446;SDS011;27185;52.040;4.490;2022-09-24T18:14:29;5.25;;;0.73;;
41446;SDS011;27185;52.040;4.490;2022-09-24T18:17:15;4.40;;;0.95;;
41446;SDS011;27185;52.040;4.490;2022-09-24T18:20:00;3.33;;;0.63;;
41446;SDS011;27185;52.040;4.490;2022-09-24T18:22:46;5.47;;;0.73;;
41446;SDS011;27185;52.040;4.490;2022-09-24T18:25:32;5.72;;;1.13;;
41446;SDS011;27185;52.040;4.490;2022-09-24T18:28:17;6.10;;;0.70;;
41446;SDS011;27185;52.040;4.490;2022-09-24T18:31:03;6.75;;;1.45;;
41446;SDS011;27185;52.040;4.490;2022-09-24T18:33:51;5.18;;;1.60;;
41446;SDS011;27185;52.040;4.490;2022-09-24T18:36:38;2.75;;;0.85;;
41446;SDS011;27185;52.040;4.490;2022-09-24T18:39:24;5.32;;;1.00;;
41446;SDS011;27185;52.040;4.490;2022-09-24T18:42:10;5.43;;;0.77;;
41446;SDS011;27185;52.040;4.490;2022-09-24T18:44:55;5.00;;;0.90;;
41446;SDS011;27185;52.040;4.490;2022-09-24T18:47:41;4.25;;;0.85;;
41446;SDS011;27185;52.040;4.490;2022-09-24T18:50:26;7.85;;;1.13;;
41446;SDS011;27185;52.040;4.490;2022-09-24T18:53:12;5.00;;;0.75;;
41446;SDS011;27185;52.040;4.490;2022-09-24T18:56:01;8.00;;;0.90;;